Time;durP1;ratioP1;P1;durP2;ratioP2;P2;SDS_P1;SDS_P2;PMS_P1;PMS_P2;Temp;Humidity;BMP_temperature;BMP_pressure;BME280_temperature;BME280_humidity;BME280_pressure;Samples;Min_cycle;Max_cycle;Signal;HPM_P1;HPM_P2
2023/05/22 00:02:09;;;;;;;29.63;16.27;;;18.30;99.90;;;;;;5076474;28;20047;-73
2023/05/22 00:04:35;;;;;;;18.20;15.30;;;18.20;99.90;;;;;;5076393;28;20046;-73
2023/05/22 00:07:00;;;;;;;21.90;16.20;;;18.30;99.90;;;;;;5094717;28;20082;-73
2023/05/22 00:09:26;;;;;;;19.25;14.60;;;18.30;99.90;;;;;;5076183;28;20503;-72
2023/05/22 00:11:52;;;;;;;23.58;15.98;;;18.30;99.90;;;;;;5093525;28;20490;-73
2023/05/22 00:14:17;;;;;;;20.50;15.38;;;18.20;99.90;;;;;;5076259;28;20503;-73
2023/05/22 00:16:43;;;;;;;19.13;15.57;;;18.20;99.90;;;;;;5094093;28;20127;-73
2023/05/22 00:19:12;;;;;;;21.92;15.73;;;18.10;99.90;;;;;;5094173;28;20040;-73
2023/05/22 00:21:38;;;;;;;25.05;18.25;;;18.10;99.90;;;;;;5093150;28;20526;-73
2023/05/22 00:24:04;;;;;;;21.85;17.92;;;18.00;99.90;;;;;;5075912;28;20036;-73
2023/05/22 00:26:30;;;;;;;23.25;17.40;;;18.00;99.90;;;;;;5076225;28;20120;-73
2023/05/22 00:28:56;;;;;;;24.02;17.77;;;18.00;99.90;;;;;;5094231;28;20111;-73
2023/05/22 00:31:22;;;;;;;24.02;17.20;;;18.10;99.90;;;;;;5093992;28;20047;-73
2023/05/22 00:33:47;;;;;;;19.98;15.57;;;18.00;99.90;;;;;;5076170;28;20040;-73
2023/05/22 00:36:14;;;;;;;18.23;15.43;;;18.00;99.90;;;;;;5093895;28;20620;-73
2023/05/22 00:38:39;;;;;;;21.60;17.15;;;18.00;99.90;;;;;;5093739;28;20081;-74
2023/05/22 00:41:06;;;;;;;20.95;17.65;;;17.90;99.90;;;;;;5092842;28;20082;-74
2023/05/22 00:43:32;;;;;;;22.30;17.83;;;17.90;99.90;;;;;;5075660;28;20040;-74
2023/05/22 00:45:58;;;;;;;23.60;17.23;;;17.90;99.90;;;;;;5075496;28;20052;-73
2023/05/22 00:48:24;;;;;;;20.60;16.25;;;17.90;99.90;;;;;;5093704;28;20096;-74
2023/05/22 00:50:52;;;;;;;20.05;16.73;;;17.80;99.90;;;;;;5075652;28;20036;-73
2023/05/22 00:53:23;;;;;;;20.67;16.23;;;17.80;99.90;;;;;;5075286;28;20046;-74
2023/05/22 00:55:48;;;;;;;19.92;15.00;;;17.80;99.90;;;;;;5093390;28;20036;-74
2023/05/22 00:58:16;;;;;;;22.05;16.65;;;17.80;99.90;;;;;;5093612;28;20040;-73
2023/05/22 01:00:43;;;;;;;20.15;15.82;;;17.80;99.90;;;;;;5093631;28;20070;-74
2023/05/22 01:03:09;;;;;;;20.20;16.83;;;17.70;99.90;;;;;;5075278;28;20052;-74
2023/05/22 01:05:36;;;;;;;22.00;16.92;;;17.80;99.90;;;;;;5074994;28;20032;-73
2023/05/22 01:08:05;;;;;;;20.30;16.90;;;17.70;99.90;;;;;;5075248;28;20089;-74
2023/05/22 01:10:31;;;;;;;22.23;17.08;;;17.80;99.90;;;;;;5075201;28;20418;-74
2023/05/22 01:13:33;;;;;;;20.55;17.48;;;17.70;99.90;;;;;;5093215;28;20039;-73
2023/05/22 01:16:09;;;;;;;21.70;17.58;;;17.70;99.90;;;;;;5074984;28;20036;-73
2023/05/22 01:18:47;;;;;;;20.58;17.20;;;17.60;99.90;;;;;;5093258;28;20043;-74
2023/05/22 01:21:22;;;;;;;20.27;15.13;;;17.60;99.90;;;;;;5093264;28;20495;-73
2023/05/22 01:23:52;;;;;;;19.27;16.13;;;17.60;99.90;;;;;;5091915;28;20036;-74
2023/05/22 01:27:00;;;;;;;20.35;17.10;;;17.60;99.90;;;;;;5074707;28;20657;-74
2023/05/22 01:30:13;;;;;;;21.15;16.02;;;17.70;99.90;;;;;;5074017;28;20052;-73
2023/05/22 01:32:40;;;;;;;20.15;15.80;;;17.70;99.90;;;;;;5075426;28;20648;-74
2023/05/22 01:35:10;;;;;;;22.67;17.77;;;17.60;99.90;;;;;;5092744;28;20042;-73
2023/05/22 01:37:37;;;;;;;21.48;18.25;;;17.70;99.90;;;;;;5092644;28;20093;-73
2023/05/22 01:40:05;;;;;;;23.77;18.42;;;17.70;99.90;;;;;;5074847;28;20062;-73
2023/05/22 01:42:31;;;;;;;21.77;17.88;;;17.60;99.90;;;;;;5091632;28;20040;-73
2023/05/22 01:44:56;;;;;;;21.77;16.35;;;17.50;99.90;;;;;;5092550;28;20040;-73
2023/05/22 01:47:22;;;;;;;21.08;16.45;;;17.60;99.90;;;;;;5074205;28;20048;-74
2023/05/22 01:49:48;;;;;;;20.67;15.60;;;17.60;99.90;;;;;;5074365;28;20036;-74
2023/05/22 01:52:25;;;;;;;19.40;16.40;;;17.50;99.90;;;;;;5092719;28;20043;-73
2023/05/22 01:54:57;;;;;;;22.73;18.92;;;17.60;99.90;;;;;;5091361;28;20039;-74
2023/05/22 01:57:51;;;;;;;23.40;17.65;;;17.50;99.90;;;;;;5092194;28;20051;-73
2023/05/22 02:00:20;;;;;;;23.33;18.88;;;17.50;99.90;;;;;;5074081;28;20040;-74
2023/05/22 02:02:50;;;;;;;22.40;17.58;;;17.50;99.90;;;;;;5092314;28;20039;-72
2023/05/22 02:05:17;;;;;;;20.42;16.83;;;17.50;99.90;;;;;;5073305;28;20061;-74
2023/05/22 02:07:44;;;;;;;24.02;18.33;;;17.50;99.90;;;;;;5073589;28;20032;-73
2023/05/22 02:10:12;;;;;;;22.42;17.38;;;17.50;99.90;;;;;;5074215;28;20407;-72
2023/05/22 02:12:38;;;;;;;26.45;18.23;;;17.40;99.90;;;;;;5074242;28;20452;-74
2023/05/22 02:15:05;;;;;;;25.45;18.48;;;17.40;99.90;;;;;;5091340;28;20078;-73
2023/05/22 02:17:39;;;;;;;23.27;19.13;;;17.40;99.90;;;;;;5072815;28;20047;-73
2023/05/22 02:20:13;;;;;;;22.40;18.00;;;17.40;99.90;;;;;;5073898;28;20044;-73
2023/05/22 02:22:40;;;;;;;24.60;19.42;;;17.40;99.90;;;;;;5073913;28;20050;-73
2023/05/22 02:25:10;;;;;;;27.45;19.60;;;17.30;99.90;;;;;;5073741;28;20047;-74
2023/05/22 02:27:36;;;;;;;28.02;20.17;;;17.40;99.90;;;;;;5073785;28;20054;-73
2023/05/22 02:30:01;;;;;;;25.67;19.60;;;17.40;99.90;;;;;;5091659;28;20535;-73
2023/05/22 02:32:27;;;;;;;25.85;19.42;;;17.30;99.90;;;;;;5092068;28;20462;-73
2023/05/22 02:34:53;;;;;;;25.40;19.63;;;17.40;99.90;;;;;;5073826;28;20051;-73
2023/05/22 02:37:19;;;;;;;27.38;19.95;;;17.30;99.90;;;;;;5073419;28;20122;-73
2023/05/22 02:39:44;;;;;;;25.30;19.95;;;17.40;99.90;;;;;;5091533;28;20576;-72
2023/05/22 02:42:10;;;;;;;24.50;18.92;;;17.30;99.90;;;;;;5073765;28;20032;-74
2023/05/22 02:44:35;;;;;;;29.20;21.02;;;17.40;99.90;;;;;;5090658;28;20048;-74
2023/05/22 02:47:01;;;;;;;26.25;19.42;;;17.30;99.90;;;;;;5073248;28;20105;-73
2023/05/22 02:49:26;;;;;;;26.33;20.88;;;17.20;99.90;;;;;;5091610;28;20063;-74
2023/05/22 02:51:52;;;;;;;22.33;19.10;;;17.20;99.90;;;;;;5073604;28;20032;-74
2023/05/22 02:54:17;;;;;;;24.85;19.08;;;17.30;99.90;;;;;;5091882;28;20043;-73
2023/05/22 02:56:43;;;;;;;23.42;19.17;;;17.30;99.90;;;;;;5073593;28;20088;-73
2023/05/22 02:59:09;;;;;;;28.83;21.50;;;17.20;99.90;;;;;;5073384;28;20495;-74
2023/05/22 03:01:35;;;;;;;27.20;20.83;;;17.20;99.90;;;;;;5091725;28;20407;-74
2023/05/22 03:04:00;;;;;;;24.40;20.17;;;17.10;99.90;;;;;;5073642;28;20044;-73
2023/05/22 03:06:26;;;;;;;26.83;18.77;;;17.20;99.90;;;;;;5073436;28;20047;-74
2023/05/22 03:08:52;;;;;;;24.23;19.60;;;17.20;99.90;;;;;;5091411;28;20032;-74
2023/05/22 03:11:17;;;;;;;26.48;20.65;;;17.10;99.90;;;;;;5091695;28;20036;-74
2023/05/22 03:13:43;;;;;;;26.17;20.13;;;17.10;99.90;;;;;;5073382;28;20130;-73
2023/05/22 03:16:08;;;;;;;25.77;20.20;;;17.20;99.90;;;;;;5091420;28;20032;-73
2023/05/22 03:18:35;;;;;;;25.10;20.58;;;17.10;99.90;;;;;;5094373;28;20047;-73
2023/05/22 03:21:00;;;;;;;24.75;19.65;;;17.00;99.90;;;;;;5077489;28;20109;-74
2023/05/22 03:23:26;;;;;;;26.10;21.17;;;17.10;99.90;;;;;;5077008;28;20487;-73
2023/05/22 03:25:51;;;;;;;28.38;21.40;;;17.00;99.90;;;;;;5094956;28;20067;-73
2023/05/22 03:28:17;;;;;;;27.48;20.30;;;17.00;99.90;;;;;;5094862;28;20038;-73
2023/05/22 03:30:42;;;;;;;26.70;22.48;;;17.00;99.90;;;;;;5077037;28;20036;-74
2023/05/22 03:33:08;;;;;;;25.77;20.45;;;17.00;99.90;;;;;;5095268;28;20036;-74
2023/05/22 03:35:34;;;;;;;25.10;21.52;;;17.00;99.90;;;;;;5076761;28;20036;-73
2023/05/22 03:37:59;;;;;;;27.55;22.02;;;16.90;99.90;;;;;;5076695;28;20040;-74
2023/05/22 03:40:25;;;;;;;28.20;21.75;;;17.00;99.90;;;;;;5095220;28;20107;-74
2023/05/22 03:42:51;;;;;;;30.38;23.33;;;16.90;99.90;;;;;;5076813;28;20088;-74
2023/05/22 03:45:16;;;;;;;31.73;23.85;;;16.90;99.90;;;;;;5076619;28;20127;-73
2023/05/22 03:47:42;;;;;;;29.35;22.30;;;16.90;99.90;;;;;;5076448;28;20291;-74
2023/05/22 03:50:08;;;;;;;31.63;23.90;;;16.90;99.90;;;;;;5094950;28;20040;-73
2023/05/22 03:52:34;;;;;;;36.17;25.90;;;16.90;99.90;;;;;;5076686;28;20039;-73
2023/05/22 03:55:00;;;;;;;32.47;24.95;;;16.90;99.90;;;;;;5076611;28;20040;-74
2023/05/22 03:57:26;;;;;;;29.23;23.42;;;16.80;99.90;;;;;;5059420;28;20491;-73
2023/05/22 03:59:51;;;;;;;30.17;25.65;;;16.70;99.90;;;;;;5076501;28;20058;-74
2023/05/22 04:02:17;;;;;;;31.15;24.15;;;16.70;99.90;;;;;;5076857;28;20079;-74
2023/05/22 04:04:44;;;;;;;30.00;24.50;;;16.70;99.90;;;;;;5094474;28;20555;-74
2023/05/22 04:07:12;;;;;;;28.17;23.95;;;16.70;99.90;;;;;;5076140;28;20089;-73
2023/05/22 04:09:38;;;;;;;34.78;25.90;;;16.70;99.90;;;;;;5076276;28;20036;-74
2023/05/22 04:12:05;;;;;;;33.17;26.02;;;16.70;99.90;;;;;;5059647;28;20043;-74
2023/05/22 04:14:31;;;;;;;31.73;24.30;;;16.80;99.90;;;;;;5076494;28;20040;-74
2023/05/22 04:16:57;;;;;;;32.38;25.33;;;16.70;99.90;;;;;;5094094;28;20040;-74
2023/05/22 04:19:23;;;;;;;29.42;23.80;;;16.70;99.90;;;;;;5075926;28;20086;-74
2023/05/22 04:21:49;;;;;;;33.00;24.85;;;16.70;99.90;;;;;;5076098;28;20063;-73
2023/05/22 04:24:14;;;;;;;30.95;23.85;;;16.70;99.90;;;;;;5076098;28;20043;-74
2023/05/22 04:26:40;;;;;;;30.00;25.05;;;16.70;99.90;;;;;;5075850;28;20035;-74
2023/05/22 04:29:09;;;;;;;32.35;26.25;;;16.60;99.90;;;;;;5092961;28;20072;-74
2023/05/22 04:31:35;;;;;;;30.92;24.02;;;16.60;99.90;;;;;;5075953;28;20088;-73
2023/05/22 04:34:01;;;;;;;31.35;24.42;;;16.50;99.90;;;;;;5094114;28;20533;-73
2023/05/22 04:36:27;;;;;;;34.45;25.27;;;16.50;99.90;;;;;;5058957;28;20036;-73
2023/05/22 04:38:54;;;;;;;34.15;25.27;;;16.50;99.90;;;;;;5094053;28;20047;-74
2023/05/22 04:41:21;;;;;;;33.17;25.15;;;16.50;99.90;;;;;;5075817;28;20044;-74
2023/05/22 04:43:47;;;;;;;34.95;26.40;;;16.50;99.90;;;;;;5075570;28;20062;-74
2023/05/22 04:46:14;;;;;;;34.60;24.60;;;16.40;99.90;;;;;;5075513;28;20120;-73
2023/05/22 04:48:40;;;;;;;33.80;25.25;;;16.50;99.90;;;;;;5093553;28;20042;-74
2023/05/22 04:51:06;;;;;;;29.50;22.60;;;16.50;99.90;;;;;;5075903;28;20349;-74
2023/05/22 04:53:32;;;;;;;34.05;24.73;;;16.50;99.90;;;;;;5093608;28;20047;-73
2023/05/22 04:55:58;;;;;;;30.98;23.40;;;16.50;99.90;;;;;;5093440;28;20051;-74
2023/05/22 04:58:26;;;;;;;38.25;25.48;;;16.40;99.90;;;;;;5075292;28;20076;-74
2023/05/22 05:00:52;;;;;;;32.72;24.65;;;16.30;99.90;;;;;;5058665;28;20499;-74
2023/05/22 05:03:19;;;;;;;31.48;23.70;;;16.40;99.90;;;;;;5075462;28;20127;-73
2023/05/22 05:05:44;;;;;;;36.70;25.33;;;16.40;99.90;;;;;;5075394;28;20434;-76
2023/05/22 05:08:10;;;;;;;32.88;23.60;;;16.40;99.90;;;;;;5094259;28;20039;-76
2023/05/22 05:10:36;;;;;;;30.77;23.38;;;16.40;99.90;;;;;;5075835;28;20503;-76
2023/05/22 05:13:02;;;;;;;34.03;23.15;;;16.40;99.90;;;;;;5076172;28;20063;-76
2023/05/22 05:15:28;;;;;;;32.00;22.88;;;16.40;99.90;;;;;;5094231;28;20449;-76
2023/05/22 05:17:54;;;;;;;31.30;23.63;;;16.40;99.90;;;;;;5093717;28;20044;-76
2023/05/22 05:20:19;;;;;;;30.42;23.42;;;16.50;99.90;;;;;;5075963;28;20036;-76
2023/05/22 05:22:45;;;;;;;30.98;22.20;;;16.40;99.90;;;;;;5093814;28;20169;-76
2023/05/22 05:25:11;;;;;;;28.40;20.95;;;16.40;99.90;;;;;;5075216;28;20229;-76
2023/05/22 05:27:37;;;;;;;30.00;21.10;;;16.50;99.90;;;;;;5074849;28;20388;-76
2023/05/22 05:30:03;;;;;;;31.58;21.92;;;16.40;99.90;;;;;;5093727;28;20119;-76
2023/05/22 05:32:29;;;;;;;26.58;20.17;;;16.50;99.90;;;;;;5093503;28;20403;-76
2023/05/22 05:34:55;;;;;;;24.27;19.40;;;16.50;99.90;;;;;;5075263;28;20051;-76
2023/05/22 05:37:21;;;;;;;22.65;18.23;;;16.60;99.90;;;;;;5093436;28;20066;-76
2023/05/22 05:39:47;;;;;;;25.48;18.38;;;16.60;99.90;;;;;;5074283;28;20051;-76
2023/05/22 05:42:12;;;;;;;25.02;17.63;;;16.70;99.90;;;;;;5074647;28;20130;-76
2023/05/22 05:44:38;;;;;;;21.70;17.08;;;16.70;99.90;;;;;;5074524;28;20437;-76
2023/05/22 05:47:04;;;;;;;24.73;19.38;;;16.80;99.90;;;;;;5074318;28;20040;-76
2023/05/22 05:49:29;;;;;;;26.05;18.40;;;16.80;99.90;;;;;;5057832;28;20040;-76
2023/05/22 05:51:55;;;;;;;25.83;18.73;;;16.80;99.90;;;;;;5093047;28;20439;-76
2023/05/22 05:54:21;;;;;;;23.88;16.67;;;16.70;99.90;;;;;;5093180;28;20046;-76
2023/05/22 05:56:47;;;;;;;23.20;17.65;;;16.80;99.90;;;;;;5074640;28;20044;-76
2023/05/22 05:59:12;;;;;;;26.02;19.13;;;16.80;99.90;;;;;;5075049;28;20069;-76
2023/05/22 06:01:43;;;;;;;24.10;17.90;;;16.80;99.90;;;;;;5074530;28;20549;-76
2023/05/22 06:04:08;;;;;;;25.10;18.00;;;16.80;99.90;;;;;;5073775;28;20048;-76
2023/05/22 06:06:35;;;;;;;27.15;18.65;;;16.80;99.90;;;;;;5092182;28;20028;-76
2023/05/22 06:09:05;;;;;;;24.88;17.17;;;16.80;99.90;;;;;;5057687;28;20492;-76
2023/05/22 06:11:31;;;;;;;25.33;16.55;;;16.80;99.90;;;;;;5092358;28;20066;-76
2023/05/22 06:14:01;;;;;;;21.17;15.60;;;16.80;99.90;;;;;;5074100;28;20422;-76
2023/05/22 06:16:27;;;;;;;23.40;18.17;;;16.90;99.90;;;;;;5073909;28;20048;-76
2023/05/22 06:18:55;;;;;;;18.77;15.38;;;16.80;99.90;;;;;;5057443;28;20052;-76
2023/05/22 06:21:21;;;;;;;22.95;16.02;;;16.80;99.90;;;;;;5074493;28;20517;-76
2023/05/22 06:23:48;;;;;;;23.50;16.52;;;16.70;99.90;;;;;;5074483;28;20119;-76
2023/05/22 06:26:14;;;;;;;23.73;16.02;;;16.80;99.90;;;;;;5092457;28;20032;-76
2023/05/22 06:28:39;;;;;;;21.05;16.80;;;16.80;99.90;;;;;;5074094;28;20039;-76
2023/05/22 06:31:05;;;;;;;20.30;15.95;;;16.70;99.90;;;;;;5092369;28;20411;-76
2023/05/22 06:33:33;;;;;;;24.40;15.45;;;16.70;99.90;;;;;;5074263;28;20040;-76
2023/05/22 06:35:58;;;;;;;20.40;15.88;;;16.70;99.90;;;;;;5074102;28;20277;-76
2023/05/22 06:38:25;;;;;;;20.17;16.17;;;16.70;99.90;;;;;;5057524;28;20820;-77
2023/05/22 06:40:50;;;;;;;20.27;16.05;;;16.80;99.90;;;;;;5073850;28;20079;-77
2023/05/22 06:43:17;;;;;;;20.45;15.60;;;16.80;99.90;;;;;;5091670;28;20075;-76
2023/05/22 06:45:42;;;;;;;21.45;15.43;;;16.80;99.90;;;;;;5091646;28;20564;-76
2023/05/22 06:48:08;;;;;;;22.73;14.77;;;16.80;99.90;;;;;;5091810;28;20123;-77
2023/05/22 06:50:33;;;;;;;22.88;15.63;;;16.90;99.90;;;;;;5073612;28;20039;-76
2023/05/22 06:52:59;;;;;;;22.85;15.18;;;16.90;99.90;;;;;;5078240;28;20419;-76
2023/05/22 06:55:24;;;;;;;20.77;14.93;;;16.80;99.90;;;;;;5079884;28;20054;-76
2023/05/22 06:57:50;;;;;;;20.88;13.80;;;16.90;99.90;;;;;;5079723;28;20051;-76
2023/05/22 07:00:17;;;;;;;26.73;14.55;;;16.90;99.90;;;;;;5079501;28;20044;-76
2023/05/22 07:02:42;;;;;;;26.15;13.77;;;16.80;99.90;;;;;;5098338;28;20071;-76
2023/05/22 07:05:08;;;;;;;18.25;12.85;;;16.80;99.90;;;;;;5079648;28;20071;-76
2023/05/22 07:07:33;;;;;;;25.33;12.52;;;16.70;99.90;;;;;;5079220;28;20392;-76
2023/05/22 07:09:59;;;;;;;21.48;12.50;;;16.70;99.90;;;;;;5080305;28;20032;-77
2023/05/22 07:12:26;;;;;;;20.10;12.75;;;16.70;99.90;;;;;;5080212;28;20031;-78
2023/05/22 07:14:52;;;;;;;21.05;12.68;;;16.60;99.90;;;;;;5080071;28;20122;-76
2023/05/22 07:17:19;;;;;;;19.27;11.90;;;16.70;99.90;;;;;;5078957;28;20053;-76
2023/05/22 07:19:46;;;;;;;20.27;12.10;;;16.70;99.90;;;;;;5076560;28;20115;-76
2023/05/22 07:22:11;;;;;;;18.00;12.13;;;16.60;99.90;;;;;;5097373;28;20519;-76
2023/05/22 07:24:37;;;;;;;20.30;10.70;;;16.50;99.90;;;;;;5079797;28;20132;-77
2023/05/22 07:27:03;;;;;;;18.67;10.57;;;16.50;99.90;;;;;;5097788;28;20118;-76
2023/05/22 07:29:29;;;;;;;15.18;10.43;;;16.40;99.90;;;;;;5098216;28;20399;-76
2023/05/22 07:31:54;;;;;;;19.52;10.07;;;16.40;99.90;;;;;;5079913;28;20040;-76
2023/05/22 07:34:21;;;;;;;16.08;9.85;;;16.40;99.90;;;;;;5079984;28;20040;-77
2023/05/22 07:36:47;;;;;;;24.88;9.82;;;16.40;99.90;;;;;;5080300;28;20062;-72
2023/05/22 07:39:12;;;;;;;20.65;9.35;;;16.40;99.90;;;;;;5079557;28;20051;-72
2023/05/22 07:41:39;;;;;;;22.55;10.02;;;16.30;99.90;;;;;;5079664;28;20044;-73
2023/05/22 07:44:04;;;;;;;18.92;10.00;;;16.20;99.90;;;;;;5098108;28;20047;-72
2023/05/22 07:46:30;;;;;;;21.38;8.75;;;16.10;99.90;;;;;;5079547;28;20036;-72
2023/05/22 07:48:56;;;;;;;25.15;10.05;;;16.20;99.90;;;;;;5098191;28;20384;-73
2023/05/22 07:51:21;;;;;;;27.17;10.73;;;16.20;99.90;;;;;;5097900;28;20473;-72
2023/05/22 07:53:47;;;;;;;19.42;10.25;;;16.10;99.90;;;;;;5098089;28;20122;-72
2023/05/22 07:56:12;;;;;;;19.42;8.77;;;16.10;99.90;;;;;;5097610;28;20044;-72
2023/05/22 07:58:38;;;;;;;19.10;9.85;;;16.10;99.90;;;;;;5080078;28;20036;-73
2023/05/22 08:01:06;;;;;;;23.73;9.32;;;16.10;99.90;;;;;;5097978;28;20120;-71
2023/05/22 08:03:32;;;;;;;18.15;10.43;;;16.10;99.90;;;;;;5078622;28;20055;-72
2023/05/22 08:05:58;;;;;;;23.33;11.88;;;16.10;99.90;;;;;;5076147;28;20040;-72
2023/05/22 08:08:24;;;;;;;21.88;10.82;;;16.20;99.90;;;;;;5094406;28;20040;-72
2023/05/22 08:10:49;;;;;;;24.75;10.40;;;16.20;99.90;;;;;;5094501;28;20062;-72
2023/05/22 08:13:17;;;;;;;24.17;10.23;;;16.20;99.90;;;;;;5094721;28;20128;-72
2023/05/22 08:15:43;;;;;;;29.50;10.93;;;16.20;99.90;;;;;;5070031;28;20050;-72
2023/05/22 08:18:08;;;;;;;22.10;10.02;;;16.20;99.90;;;;;;5058330;28;20032;-71
2023/05/22 08:20:34;;;;;;;22.42;10.50;;;16.20;99.90;;;;;;5074688;28;20036;-71
2023/05/22 08:22:59;;;;;;;22.23;10.18;;;16.20;99.90;;;;;;5073749;28;20569;-72
2023/05/22 08:25:25;;;;;;;23.52;11.15;;;16.30;99.90;;;;;;5073790;28;20055;-72
2023/05/22 08:27:50;;;;;;;21.15;11.23;;;16.20;99.90;;;;;;5074046;28;20045;-72
2023/05/22 08:30:16;;;;;;;19.35;10.05;;;16.20;99.90;;;;;;5074434;28;20032;-72
2023/05/22 08:32:42;;;;;;;19.30;11.38;;;16.30;99.90;;;;;;5055987;28;20046;-72
2023/05/22 08:35:08;;;;;;;23.48;12.27;;;16.20;99.90;;;;;;5055854;28;20040;-72
2023/05/22 08:37:33;;;;;;;18.85;10.57;;;16.20;99.90;;;;;;5073632;28;20048;-72
2023/05/22 08:39:59;;;;;;;28.27;13.50;;;16.30;99.90;;;;;;5073394;28;20575;-73
2023/05/22 08:42:24;;;;;;;26.92;11.60;;;16.20;99.90;;;;;;5073626;28;20041;-73
2023/05/22 08:44:50;;;;;;;25.75;11.60;;;16.30;99.90;;;;;;5039140;28;20076;-73
2023/05/22 08:47:17;;;;;;;29.25;11.50;;;16.20;99.90;;;;;;5055486;28;20063;-73
2023/05/22 08:49:48;;;;;;;23.45;11.13;;;16.30;99.90;;;;;;5073491;28;20044;-73
2023/05/22 08:52:21;;;;;;;24.00;11.50;;;16.30;99.90;;;;;;5073585;28;20046;-72
2023/05/22 08:54:51;;;;;;;25.88;12.75;;;16.30;99.90;;;;;;5073726;28;20128;-73
2023/05/22 08:57:19;;;;;;;35.67;11.95;;;16.30;99.90;;;;;;5073363;28;20048;-72
2023/05/22 08:59:46;;;;;;;29.77;12.77;;;16.30;99.90;;;;;;5055483;28;20412;-72
2023/05/22 09:02:12;;;;;;;21.73;11.88;;;16.30;99.90;;;;;;5055381;28;20055;-73
2023/05/22 09:04:40;;;;;;;27.08;11.95;;;16.40;99.90;;;;;;5073161;28;20051;-72
2023/05/22 09:07:05;;;;;;;23.40;12.70;;;16.40;99.90;;;;;;5072569;28;20072;-73
2023/05/22 09:09:35;;;;;;;28.35;11.75;;;16.30;99.90;;;;;;5073194;28;20496;-72
2023/05/22 09:12:01;;;;;;;28.63;12.35;;;16.40;99.90;;;;;;5073568;28;20036;-72
2023/05/22 09:14:27;;;;;;;26.73;12.27;;;16.40;99.90;;;;;;5072592;28;20044;-72
2023/05/22 09:16:53;;;;;;;22.48;12.75;;;16.30;99.90;;;;;;5054618;28;20043;-72
2023/05/22 09:19:19;;;;;;;24.15;14.02;;;16.20;99.90;;;;;;5054895;28;20044;-72
2023/05/22 09:21:46;;;;;;;22.02;12.48;;;16.20;99.90;;;;;;5055041;28;20072;-73
2023/05/22 09:24:12;;;;;;;20.55;13.13;;;16.30;99.90;;;;;;5055088;28;20404;-73
2023/05/22 09:26:38;;;;;;;24.83;11.90;;;16.20;99.90;;;;;;5072450;28;20045;-72
2023/05/22 09:29:07;;;;;;;27.70;12.18;;;16.20;99.90;;;;;;5072698;28;20040;-72
2023/05/22 09:31:42;;;;;;;25.50;13.15;;;16.10;99.90;;;;;;5072798;28;20028;-72
2023/05/22 09:34:09;;;;;;;24.27;12.48;;;16.10;99.90;;;;;;5072646;28;20068;-72
2023/05/22 09:36:35;;;;;;;25.67;11.82;;;16.30;99.90;;;;;;5054780;28;20408;-72
2023/05/22 09:39:02;;;;;;;26.52;13.50;;;16.40;99.90;;;;;;5072456;28;20043;-72
2023/05/22 09:41:29;;;;;;;24.35;12.90;;;16.40;99.90;;;;;;5072696;28;20066;-72
2023/05/22 09:43:55;;;;;;;23.83;13.20;;;16.50;99.90;;;;;;5054697;28;20087;-72
2023/05/22 09:46:21;;;;;;;21.50;12.57;;;16.70;99.90;;;;;;5072223;28;20064;-72
2023/05/22 09:48:53;;;;;;;25.70;11.98;;;16.80;99.90;;;;;;5054494;28;20036;-72
2023/05/22 09:51:25;;;;;;;27.10;12.73;;;16.90;99.90;;;;;;5054453;28;20032;-72
2023/05/22 09:54:02;;;;;;;22.83;13.27;;;17.00;99.90;;;;;;5037799;28;20036;-73
2023/05/22 09:56:31;;;;;;;24.35;12.68;;;17.10;99.90;;;;;;5072205;28;20041;-73
2023/05/22 09:58:58;;;;;;;38.35;15.02;;;17.20;99.90;;;;;;5071861;28;20036;-72
2023/05/22 10:01:25;;;;;;;29.15;13.98;;;17.30;99.90;;;;;;5072043;28;20049;-72
2023/05/22 10:03:53;;;;;;;25.80;12.73;;;17.30;99.90;;;;;;5088417;28;20043;-73
2023/05/22 10:06:21;;;;;;;23.73;12.45;;;17.40;99.90;;;;;;5091728;28;20043;-73
2023/05/22 10:08:52;;;;;;;24.58;13.48;;;17.60;99.90;;;;;;5073744;28;20495;-72
2023/05/22 10:11:18;;;;;;;24.33;12.43;;;17.60;99.90;;;;;;5091816;28;20047;-73
2023/05/22 10:13:46;;;;;;;23.98;13.05;;;17.70;99.90;;;;;;5091743;28;20039;-72
2023/05/22 10:16:14;;;;;;;19.40;12.00;;;17.70;99.90;;;;;;5073698;28;20040;-72
2023/05/22 10:18:40;;;;;;;23.10;12.32;;;17.90;99.90;;;;;;5091676;28;20067;-72
2023/05/22 10:21:06;;;;;;;25.60;12.10;;;18.00;99.90;;;;;;5092004;28;20036;-72
2023/05/22 10:23:31;;;;;;;25.17;12.88;;;18.10;99.90;;;;;;5091830;28;20040;-72
2023/05/22 10:25:57;;;;;;;24.35;12.23;;;18.20;99.90;;;;;;5091352;28;20028;-73
2023/05/22 10:28:34;;;;;;;25.08;13.00;;;18.30;99.90;;;;;;5090856;28;20422;-72
2023/05/22 10:31:23;;;;;;;28.10;13.43;;;18.50;99.90;;;;;;5091834;28;20028;-73
2023/05/22 10:33:55;;;;;;;25.60;12.90;;;18.60;99.90;;;;;;5091314;28;20051;-73
2023/05/22 10:36:59;;;;;;;21.73;12.00;;;18.70;99.90;;;;;;5091432;28;20081;-73
2023/05/22 10:39:53;;;;;;;22.73;13.23;;;18.70;99.90;;;;;;5016424;28;20425;-72
2023/05/22 10:42:19;;;;;;;22.23;13.23;;;18.70;99.90;;;;;;5084302;28;20040;-72
2023/05/22 10:44:47;;;;;;;20.92;14.30;;;18.60;99.90;;;;;;5091464;28;20085;-72
2023/05/22 10:47:13;;;;;;;29.60;15.13;;;18.60;99.90;;;;;;5073465;28;20079;-72
2023/05/22 10:49:45;;;;;;;18.90;13.13;;;18.70;99.90;;;;;;5091396;28;20060;-72
2023/05/22 10:52:13;;;;;;;26.30;13.60;;;18.70;99.90;;;;;;5091548;28;20036;-72
2023/05/22 10:54:43;;;;;;;26.08;14.32;;;18.90;99.90;;;;;;5091362;28;20278;-72
2023/05/22 10:57:17;;;;;;;26.35;13.70;;;19.00;99.90;;;;;;5091228;28;20028;-72
2023/05/22 10:59:46;;;;;;;20.95;12.55;;;19.00;99.90;;;;;;5091357;28;20044;-72
2023/05/22 11:02:29;;;;;;;19.77;13.10;;;19.20;99.90;;;;;;5073203;28;20055;-72
2023/05/22 11:05:20;;;;;;;15.77;11.82;;;19.20;99.90;;;;;;5073361;28;20032;-73
2023/05/22 11:07:46;;;;;;;15.75;12.65;;;19.40;99.90;;;;;;5072988;28;20119;-71
2023/05/22 11:10:11;;;;;;;18.75;13.88;;;19.50;99.90;;;;;;5091327;28;20467;-72
2023/05/22 11:12:37;;;;;;;21.50;12.88;;;19.50;99.90;;;;;;5073264;28;20534;-72
2023/05/22 11:15:08;;;;;;;18.23;12.57;;;19.60;99.90;;;;;;5073055;28;20052;-72
2023/05/22 11:17:45;;;;;;;18.02;12.63;;;19.60;99.90;;;;;;5090951;28;20189;-72
2023/05/22 11:20:27;;;;;;;18.63;13.52;;;19.60;99.90;;;;;;5091223;28;20415;-72
2023/05/22 11:23:19;;;;;;;18.37;14.90;;;19.70;99.90;;;;;;5072956;28;20527;-70
2023/05/22 11:25:45;;;;;;;20.77;13.77;;;19.80;99.90;;;;;;5069346;28;20348;-72
2023/05/22 11:28:11;;;;;;;24.90;15.95;;;20.00;99.90;;;;;;5072748;28;20047;-71
2023/05/22 11:30:37;;;;;;;21.48;15.20;;;20.00;99.90;;;;;;5091330;28;20107;-71
2023/05/22 11:33:04;;;;;;;19.33;15.95;;;20.10;99.90;;;;;;5090988;28;20423;-72
2023/05/22 11:35:30;;;;;;;17.20;15.02;;;20.20;99.90;;;;;;5091334;28;20089;-72
2023/05/22 11:37:56;;;;;;;23.05;16.67;;;20.20;99.90;;;;;;5073607;28;20040;-71
2023/05/22 11:40:24;;;;;;;21.45;16.88;;;20.30;99.90;;;;;;5076944;28;20040;-71
2023/05/22 11:42:50;;;;;;;25.85;16.88;;;20.50;99.90;;;;;;5077099;28;20044;-72
2023/05/22 11:45:16;;;;;;;20.83;15.27;;;20.70;99.90;;;;;;5076888;28;20118;-71
2023/05/22 11:47:43;;;;;;;23.35;15.90;;;20.80;99.90;;;;;;5094278;28;20040;-69
2023/05/22 11:50:10;;;;;;;20.23;15.55;;;21.00;99.90;;;;;;5076108;28;20233;-69
2023/05/22 11:52:37;;;;;;;20.65;15.15;;;21.00;99.90;;;;;;5076561;28;20525;-69
2023/05/22 11:55:06;;;;;;;19.38;17.33;;;21.20;99.90;;;;;;5094595;28;20127;-69
2023/05/22 11:57:33;;;;;;;22.02;17.63;;;21.40;99.90;;;;;;5076074;28;20047;-69
2023/05/22 11:59:59;;;;;;;23.25;16.50;;;21.40;99.90;;;;;;5094490;28;20040;-70
2023/05/22 12:02:25;;;;;;;20.23;18.02;;;21.50;99.90;;;;;;5094627;28;20036;-69
2023/05/22 12:04:54;;;;;;;21.50;16.77;;;21.50;99.90;;;;;;5093732;28;20044;-69
2023/05/22 12:07:21;;;;;;;21.17;15.65;;;21.60;99.90;;;;;;5091935;28;20036;-69
2023/05/22 12:09:47;;;;;;;20.60;16.80;;;21.60;99.90;;;;;;5073348;28;20024;-69
2023/05/22 12:12:15;;;;;;;19.88;15.15;;;21.60;99.90;;;;;;5086916;28;20055;-69
2023/05/22 12:14:43;;;;;;;21.40;17.27;;;21.70;99.90;;;;;;5073769;28;20095;-69
2023/05/22 12:17:12;;;;;;;19.58;16.98;;;21.80;99.90;;;;;;5071193;28;20044;-69
2023/05/22 12:19:40;;;;;;;26.52;17.05;;;21.80;99.90;;;;;;5076112;28;20080;-70
2023/05/22 12:22:06;;;;;;;24.83;17.77;;;21.90;99.90;;;;;;5094432;28;20043;-69
2023/05/22 12:24:44;;;;;;;21.15;17.17;;;22.00;99.90;;;;;;5094265;28;20119;-69
2023/05/22 12:27:12;;;;;;;22.55;16.02;;;22.00;99.90;;;;;;5075927;28;20085;-69
2023/05/22 12:29:39;;;;;;;20.73;15.85;;;22.10;99.90;;;;;;5074736;28;20036;-69
2023/05/22 12:32:09;;;;;;;20.95;16.30;;;22.20;99.90;;;;;;5074065;28;20044;-69